^^
Meteo Knjazevac Station Historical Data
Daily Summary for May 5, 2022 Units:  English    Metric   Both
Daily Weekly Monthly Yearly Custom
  High: Low: Average:
Temperature: 50.5 °F 44.8 °F 46.8 °F
Dew Point: 48.9 °F 44.2 °F 46 °F
Humidity: 99% 94% 97%
Wind Speed: 3.8mph 0mph 1.4mph
Wind Gust: 5mph - -
Wind- - SW
Pressure: 29.94 in 29.91 in -
Precipitation: 0.00 in    
Historical Graphs
 
 
Tabular Data for May 5, 2022
Time Temperature Dew Point Pressure Wind Wind Speed Wind Gust Humidity Rainfall Rate (Hourly) solar Conditions
00:04 48.9 °F 47.3 °F 29.93 in Calm   1 mph 94% 0.00 in 0 W/m2
00:09 48.9 °F 47.3 °F 29.93 in North 0.4 mph 0.7 mph 94% 0.00 in 0 W/m2
00:14 48.9 °F 47.3 °F 29.93 in NNW 0.6 mph 1 mph 94% 0.00 in 0 W/m2
00:19 48.7 °F 47.1 °F 29.93 in Calm   1 mph 94% 0.00 in 0 W/m2
00:24 48.7 °F 47.1 °F 29.93 in WSW 0.7 mph 0.4 mph 94% 0.00 in 0 W/m2
00:29 48.7 °F 47 °F 29.93 in WNW 0.8 mph 1 mph 94% 0.00 in 0 W/m2
00:34 48.6 °F 47.2 °F 29.93 in North 1.9 mph 2 mph 94.6% 0.00 in 0 W/m2
00:39 48.6 °F 47.3 °F 29.93 in North 0.3 mph 2 mph 95% 0.00 in 0 W/m2
00:44 48.6 °F 47.2 °F 29.93 in Calm     95% 0.00 in 0 W/m2
00:49 48.6 °F 47.2 °F 29.93 in North 1.3 mph 2 mph 95% 0.00 in 0 W/m2
00:54 48.5 °F 47.1 °F 29.93 in NNE 2.3 mph 2 mph 95% 0.00 in 0 W/m2
00:59 48.4 °F 47 °F 29.93 in NNE 1.3 mph 2 mph 95% 0.00 in 0 W/m2
01:04 48.4 °F 47 °F 29.93 in North 0.8 mph 1 mph 95% 0.00 in 0 W/m2
01:09 48.2 °F 46.8 °F 29.94 in West 1.4 mph 1.6 mph 95% 0.00 in 0 W/m2
01:14 48 °F 46.7 °F 29.94 in West 1.9 mph 2 mph 95% 0.00 in 0 W/m2
01:19 47.8 °F 46.5 °F 29.94 in WNW 2.2 mph 2 mph 95% 0.00 in 0 W/m2
01:24 47.7 °F 46.4 °F 29.94 in NW 2.1 mph 2 mph 95% 0.00 in 0 W/m2
01:29 47.7 °F 46.3 °F 29.94 in NNW 1.2 mph 2 mph 95% 0.00 in 0 W/m2
01:34 47.6 °F 46.2 °F 29.94 in NW 2.1 mph 2 mph 95% 0.00 in 0 W/m2
01:39 47.5 °F 46.2 °F 29.94 in WNW 1.9 mph 2 mph 95.5% 0.00 in 0 W/m2
01:44 47.5 °F 46.4 °F 29.94 in WNW 0.1 mph 2 mph 96% 0.00 in 0 W/m2
01:49 47.5 °F 46.4 °F 29.94 in Calm     96% 0.00 in 0 W/m2
01:54 47.5 °F 46.4 °F 29.94 in NW 0.3 mph 0.4 mph 96% 0.00 in 0 W/m2
01:59 47.3 °F 46.2 °F 29.93 in NNW 1.8 mph 2 mph 96% 0.00 in 0 W/m2
02:04 47.3 °F 46.2 °F 29.93 in NNE 1.8 mph 2 mph 96% 0.00 in 0 W/m2
02:09 47.2 °F 46.1 °F 29.93 in NE 2.3 mph 2.5 mph 96% 0.00 in 0 W/m2
02:14 47.1 °F 46 °F 29.93 in NE 2.4 mph 3 mph 96% 0.00 in 0 W/m2
02:19 47.1 °F 46 °F 29.93 in NE 0.7 mph 3 mph 96% 0.00 in 0 W/m2
02:24 47 °F 45.9 °F 29.92 in NE 1.8 mph 1.1 mph 96% 0.00 in 0 W/m2
02:29 46.9 °F 45.8 °F 29.92 in ENE 0.2 mph 2 mph 96% 0.00 in 0 W/m2
02:34 46.8 °F 45.7 °F 29.92 in North 0.5 mph 0.2 mph 96% 0.00 in 0 W/m2
02:39 46.7 °F 45.6 °F 29.91 in North 1.9 mph 1.6 mph 96% 0.00 in 0 W/m2
02:44 46.6 °F 45.5 °F 29.91 in NW 1.8 mph 2 mph 96% 0.00 in 0 W/m2
02:49 46.5 °F 45.4 °F 29.91 in West 1.4 mph 2 mph 96% 0.00 in 0 W/m2
02:54 46.4 °F 45.3 °F 29.91 in West 2.2 mph 2 mph 96% 0.00 in 0 W/m2
02:59 46.2 °F 45.1 °F 29.91 in WNW 1.1 mph 2 mph 96% 0.00 in 0 W/m2
03:04 46.2 °F 45.1 °F 29.91 in WNW 1.1 mph 1 mph 96% 0.00 in 0 W/m2
03:09 46 °F 45 °F 29.91 in NW 0.5 mph 1 mph 96% 0.00 in 0 W/m2
03:14 45.9 °F 44.8 °F 29.91 in Calm   1 mph 96% 0.00 in 0 W/m2
03:19 45.8 °F 44.7 °F 29.91 in WNW 0.5 mph   96% 0.00 in 0 W/m2
03:24 45.5 °F 44.4 °F 29.91 in WNW 1.7 mph 1.6 mph 96% 0.00 in 0 W/m2
03:29 45.4 °F 44.3 °F 29.91 in NNW 1.2 mph 2 mph 96% 0.00 in 0 W/m2
03:34 45.2 °F 44.2 °F 29.91 in ESE 0.2 mph 2 mph 96% 0.00 in 0 W/m2
03:39 45.1 °F 44.2 °F 29.91 in South 1.2 mph 1 mph 96.5% 0.00 in 0 W/m2
03:44 45 °F 44.5 °F 29.91 in West 1.7 mph 2 mph 98% 0.00 in 0 W/m2
03:49 45 °F 44.4 °F 29.91 in WNW 1.5 mph 3 mph 98% 0.00 in 0 W/m2
03:54 45 °F 44.4 °F 29.91 in NW 0.7 mph 2 mph 98% 0.00 in 0 W/m2
03:59 45 °F 44.6 °F 29.91 in NNW 1.8 mph 2 mph 98.6% 0.00 in 0 W/m2
04:04 45 °F 44.7 °F 29.91 in North 1.8 mph 2 mph 99% 0.00 in 0 W/m2
04:09 45 °F 44.7 °F 29.92 in North 0.7 mph 2 mph 99% 0.00 in 0 W/m2
04:14 45.1 °F 44.8 °F 29.92 in North 0.7 mph 2 mph 99% 0.00 in 0 W/m2
04:19 45 °F 44.8 °F 29.92 in NNW 1.4 mph 2 mph 99% 0.00 in 0 W/m2
04:24 45 °F 44.7 °F 29.92 in NNW 0.7 mph 2 mph 99% 0.00 in 0 W/m2
04:29 45 °F 44.8 °F 29.92 in Calm   1 mph 99% 0.00 in 0 W/m2
04:34 45.1 °F 44.9 °F 29.92 in North 0.3 mph   99% 0.00 in 0 W/m2
04:39 45.1 °F 44.9 °F 29.92 in North 0.9 mph 2 mph 99% 0.00 in 0 W/m2
04:44 45.2 °F 45 °F 29.92 in North 1 mph 2 mph 99% 0.00 in 0 W/m2
04:49 45.3 °F 45.1 °F 29.92 in North 1.6 mph 2 mph 99% 0.00 in 0 W/m2
04:54 45.3 °F 45.1 °F 29.93 in NNW 2 mph 2 mph 99% 0.00 in 0 W/m2
04:59 45.2 °F 44.7 °F 29.93 in WNW 1.1 mph 2 mph 98.2% 0.00 in 0 W/m2
05:04 45.1 °F 44.6 °F 29.93 in WNW 1.8 mph 1.3 mph 98% 0.00 in 0 W/m2
05:09 45 °F 44.5 °F 29.93 in NW 1.6 mph 2 mph 98% 0.00 in 0 W/m2
05:14 45 °F 44.4 °F 29.93 in NW 1.2 mph 2 mph 98% 0.00 in 0 W/m2
05:19 45 °F 44.4 °F 29.93 in NNW 1.1 mph 2 mph 98% 0.00 in 0 W/m2
05:24 45 °F 44.4 °F 29.93 in NW 1.7 mph 1.6 mph 98% 0.00 in 0 W/m2
05:29 44.9 °F 44.3 °F 29.93 in WNW 1.3 mph 2 mph 98% 0.00 in 0 W/m2
05:34 44.8 °F 44.4 °F 29.93 in Calm   2 mph 98.3% 0.00 in 0 W/m2
05:39 45 °F 44.7 °F 29.93 in NW 0.9 mph 1.6 mph 99% 0.00 in 0 W/m2
05:44 45.1 °F 44.8 °F 29.93 in NNW 3.6 mph 3 mph 99% 0.00 in 0 W/m2
05:49 45.3 °F 45.1 °F 29.93 in North 3.5 mph 5 mph 99% 0.00 in 0 W/m2
05:54 45.4 °F 45.2 °F 29.93 in NNW 1.8 mph 4 mph 99% 0.00 in 0 W/m2
05:59 45.3 °F 45.1 °F 29.93 in NW 2.2 mph 2 mph 99% 0.00 in 0 W/m2
06:04 45.2 °F 44.9 °F 29.93 in WNW 2.2 mph 2 mph 98.7% 0.00 in 0 W/m2
06:09 45.2 °F 45 °F 29.93 in WNW 0.9 mph 2 mph 99% 0.00 in 0 W/m2
06:14 45.3 °F 45.1 °F 29.93 in North 1.8 mph 1.1 mph 99% 0.00 in 1 W/m2
06:19 45.3 °F 45.1 °F 29.93 in WNW 2 mph 2 mph 99% 0.00 in 2 W/m2
06:24 45.3 °F 45.1 °F 29.94 in WSW 2.3 mph 2 mph 99% 0.00 in 3 W/m2
06:29 45.1 °F 44.9 °F 29.94 in WSW 3.1 mph 3 mph 99% 0.00 in 5 W/m2
06:34 45.1 °F 44.9 °F 29.94 in West 2.8 mph 3 mph 99% 0.00 in 8 W/m2
06:39 45.2 °F 45 °F 29.94 in NW 3 mph 3 mph 99% 0.00 in 12 W/m2
06:44 45.4 °F 45.2 °F 29.93 in WNW 0.7 mph 3 mph 99% 0.00 in 15 W/m2
06:49 45.5 °F 45.2 °F 29.93 in WNW 1.6 mph 2 mph 99% 0.00 in 19 W/m2
06:54 45.7 °F 45.4 °F 29.93 in WNW 1.8 mph 2 mph 99% 0.00 in 24 W/m2
06:59 45.9 °F 45.6 °F 29.93 in Calm   2 mph 99% 0.00 in 31 W/m2
07:04 46 °F 45.7 °F 29.93 in ENE 0.4 mph 0.2 mph 99% 0.00 in 36 W/m2
07:09 46 °F 45.8 °F 29.93 in NE 1 mph 1 mph 99% 0.00 in 40 W/m2
07:14 46 °F 45.8 °F 29.94 in North 1.3 mph 2 mph 99% 0.00 in 43 W/m2
07:19 46 °F 45.8 °F 29.93 in Calm   2 mph 99% 0.00 in 48 W/m2
07:24 46.1 °F 45.9 °F 29.93 in West 0.1 mph   99% 0.00 in 55 W/m2
07:29 46.2 °F 46 °F 29.93 in West 1.2 mph 1.3 mph 99% 0.00 in 57 W/m2
07:34 46.4 °F 46.1 °F 29.93 in West 1.5 mph 2 mph 99% 0.00 in 61 W/m2
07:39 46.5 °F 46.2 °F 29.93 in WSW 0.3 mph 2 mph 99% 0.00 in 75 W/m2
07:44 46.7 °F 46.4 °F 29.93 in WSW 1.2 mph 1.1 mph 99% 0.00 in 84 W/m2
07:49 46.8 °F 46.5 °F 29.94 in WNW 0.5 mph 2 mph 99% 0.00 in 83 W/m2
07:54 47 °F 46.7 °F 29.94 in NNW 0.8 mph 1.3 mph 99% 0.00 in 82 W/m2
07:59 47.3 °F 47 °F 29.94 in North 3.7 mph 4 mph 99% 0.00 in 75 W/m2
08:04 47.5 °F 47 °F 29.94 in NNE 3.4 mph 5 mph 98.2% 0.00 in 70 W/m2
08:09 47.7 °F 47.1 °F 29.94 in NNE 3.7 mph 4 mph 98% 0.00 in 77 W/m2
08:14 47.8 °F 47.3 °F 29.93 in NNE 3.8 mph 5 mph 98% 0.00 in 86 W/m2
08:19 48 °F 47.5 °F 29.94 in North 3 mph 4 mph 98% 0.00 in 106 W/m2
08:24 48.1 °F 47.6 °F 29.94 in North 2.7 mph 3 mph 98% 0.00 in 120 W/m2
08:29 48.4 °F 47.6 °F 29.94 in North 1.6 mph 3 mph 97.2% 0.00 in 130 W/m2
08:34 48.6 °F 47.5 °F 29.94 in Calm   2 mph 96% 0.00 in 129 W/m2
08:39 48.7 °F 47.7 °F 29.94 in North 1.1 mph 0.9 mph 96% 0.00 in 135 W/m2
08:44 48.9 °F 47.8 °F 29.94 in North 3 mph 3 mph 96% 0.00 in 139 W/m2
08:49 48.8 °F 47.8 °F 29.94 in NE 2.1 mph 5 mph 96% 0.00 in 143 W/m2
08:54 49 °F 47.9 °F 29.94 in NE 2.1 mph 3 mph 96% 0.00 in 147 W/m2
08:59 49 °F 47.9 °F 29.94 in NE 1.5 mph 2 mph 96% 0.00 in 147 W/m2
09:04 49.1 °F 48 °F 29.94 in NE 1.4 mph 2 mph 96% 0.00 in 142 W/m2
09:09 49.1 °F 48 °F 29.94 in ESE 1.4 mph 2 mph 96% 0.00 in 131 W/m2
09:14 49.3 °F 48 °F 29.94 in ESE 1.3 mph 2 mph 95.6% 0.00 in 114 W/m2
09:19 49.5 °F 48.1 °F 29.94 in SSE 1.7 mph 2 mph 95% 0.00 in 101 W/m2
09:24 49.6 °F 48.2 °F 29.94 in SSE 1.7 mph 2 mph 95% 0.00 in 94 W/m2
09:29 49.6 °F 48.3 °F 29.94 in SSW 1.6 mph 2 mph 95% 0.00 in 90 W/m2
09:34 49.8 °F 48.4 °F 29.94 in NNW 0.1 mph 2 mph 95% 0.00 in 97 W/m2
09:39 50 °F 48.6 °F 29.94 in NNW 0.2 mph 1 mph 94.7% 0.00 in 113 W/m2
09:44 50.3 °F 48.6 °F 29.94 in NNW 1.1 mph 0.7 mph 94% 0.00 in 133 W/m2
09:49 50.5 °F 48.8 °F 29.94 in NNW 1.2 mph 2 mph 94% 0.00 in 140 W/m2
09:50 50.5 °F 48.9 °F 29.94 in Calm   2 mph 94% 0.00 in 142 W/m2
Knjazevac, Serbia
Compliments of Weather Underground - 2 mb